Spring Mount, PA (19478)

5:48 AM EDT on August 29, 2014 (GMT -0400)
Woxall, Back yard | Change Station
CLOSE
Current Station
Personal Weather Station
Location: Harleysville, PA
Elevation: 430 ft
Nearby Weather Stations

Elev 430 ft 40.31 °N, 75.44 °W | Updated 1 minute ago

Clear
Clear
50.5 °F
Feels Like 50.5 °F
N
0.0
Wind Variable Wind from SSW
Gusts 0.0 mph

Today
High -- | Low -- °F
--% Chance of Precip.
Yesterday
High -- | Low -- °F
Precip. -- in
6:26 AM 7:38 PM
Waxing Crescent, 13% visible
Pressure 30.14 in
Visibility 10.0 miles
Clouds Clear
Dew Point 48 °F
Humidity 91%
Rainfall 0.00 in
Snow Depth Not available.
UV 0 out of 12
Pollen 9.70 out of 12
Air Quality Not available.
Flu Activity Not available.
METAR KPTW 290854Z AUTO 00000KT 10SM CLR 12/09 A3015 RMK AO2 SLP206 T01170094 53008

More Conditions Fewer Conditions

Pressure 30.14 in
Visibility 10.0 miles
Clouds Clear
Dew Point 48 °F
Humidity 91%
Rainfall 0.00 in
Snow Depth Not available.
UV 0 out of 12
Pollen 9.70 out of 12
Air Quality Not available.
Flu Activity Not available.
METAR KPTW 290854Z AUTO 00000KT 10SM CLR 12/09 A3015 RMK AO2 SLP206 T01170094 53008

More Conditions Fewer Conditions

10-Day Weather Forecast

Almanac

Astronomy

Aug. 29, 2014 Rise Set
Actual Time 6:26 AM EDT 7:38 PM EDT
Civil Twilight 5:58 AM EDT 8:06 PM EDT
Nautical Twilight 5:24 AM EDT 8:39 PM EDT
Astronomical Twilight 4:49 AM EDT 9:14 PM EDT
Moon 10:14 AM EDT 9:34 PM EDT
Length of Visible Light 14h 08m
Length of Day
13h 11m
Tomorrow will be 2m 32s shorter.
Waxing Crescent, 13% of the Moon is Illuminated
Today
Waxing Crescent
Sep 2
First Quarter
Sep 8
Full
Sep 15
Last Quarter
Sep 24
New

Today's Extremes

State Highs State Lows

Community

WunderPhotos

Upload Photos

1,748,207 photos uploaded!

Nearby

Snow Depth

Station Depth Elevation
No new snow has been reported.

Earthquake Activity

City Distance Mag. Time & Date
No recent earthquake activity has been reported nearby.
Minimum magnitude displayed is 2.5.

Coastal Water Temperatures

Place Temperature
No Stations Reporting

Nearby Weather Stations